Radisson, Canada
Current Conditions -  °F | °C
As of 6:21 PM on Friday 31 Oct 2014 (Local Time) from CYGL Reporting Station
Few Clouds Few Clouds  
Wind Chill: 19°   Ceiling: Unl
Heat Index: 27°   Visibility: 15mi
Dew Point: 21°   Wind: 7mph
Humidity: 80%   Direction: 280°W
Pressure: 30.19"   Gusts: NA
Location:  53.78°N, 77.62°W
Report Text: CYGL 312221Z 28006KT 15SM FEW035 M03/M06 A3019 RMK SC1 SLP240
Loading
Personal Weather Stations






























Interactive Weather Map
Tropical Storm Tracking
New forecast layout! Learn more

10-Day Weather Forecast

Advertisements
Track Severe Weather on mobile